sensor_id;sensor_type;location;lat;lon;timestamp;P1;durP1;ratioP1;P2;durP2;ratioP2
44985;SDS011;30721;49.380;7.736;2022-10-31T00:02:24;6.43;;;2.35;;
44985;SDS011;30721;49.380;7.736;2022-10-31T00:04:49;4.75;;;2.03;;
44985;SDS011;30721;49.380;7.736;2022-10-31T00:07:15;3.90;;;2.15;;
44985;SDS011;30721;49.380;7.736;2022-10-31T00:09:40;3.72;;;1.85;;
44985;SDS011;30721;49.380;7.736;2022-10-31T00:12:05;4.63;;;2.15;;
44985;SDS011;30721;49.380;7.736;2022-10-31T00:14:31;4.20;;;2.17;;
44985;SDS011;30721;49.380;7.736;2022-10-31T00:16:56;5.07;;;2.15;;
44985;SDS011;30721;49.380;7.736;2022-10-31T00:19:21;4.38;;;2.17;;
44985;SDS011;30721;49.380;7.736;2022-10-31T00:21:47;5.13;;;2.03;;
44985;SDS011;30721;49.380;7.736;2022-10-31T00:24:12;3.35;;;1.85;;
44985;SDS011;30721;49.380;7.736;2022-10-31T00:26:37;5.63;;;1.70;;
44985;SDS011;30721;49.380;7.736;2022-10-31T00:29:03;4.80;;;2.22;;
44985;SDS011;30721;49.380;7.736;2022-10-31T00:31:28;4.15;;;1.60;;
44985;SDS011;30721;49.380;7.736;2022-10-31T00:33:54;4.30;;;1.85;;
44985;SDS011;30721;49.380;7.736;2022-10-31T00:36:19;6.63;;;2.50;;
44985;SDS011;30721;49.380;7.736;2022-10-31T00:38:46;6.97;;;2.20;;
44985;SDS011;30721;49.380;7.736;2022-10-31T00:41:12;6.85;;;2.88;;
44985;SDS011;30721;49.380;7.736;2022-10-31T00:43:38;1.80;;;1.48;;
44985;SDS011;30721;49.380;7.736;2022-10-31T00:46:03;5.00;;;2.10;;
44985;SDS011;30721;49.380;7.736;2022-10-31T00:48:29;4.40;;;1.85;;
44985;SDS011;30721;49.380;7.736;2022-10-31T00:50:54;3.05;;;1.77;;
44985;SDS011;30721;49.380;7.736;2022-10-31T00:53:20;3.72;;;2.00;;
44985;SDS011;30721;49.380;7.736;2022-10-31T00:55:45;4.57;;;1.73;;
44985;SDS011;30721;49.380;7.736;2022-10-31T00:58:10;5.18;;;2.15;;
44985;SDS011;30721;49.380;7.736;2022-10-31T01:00:36;4.20;;;2.10;;
44985;SDS011;30721;49.380;7.736;2022-10-31T01:03:01;3.45;;;2.00;;
44985;SDS011;30721;49.380;7.736;2022-10-31T01:05:27;3.83;;;2.10;;
44985;SDS011;30721;49.380;7.736;2022-10-31T01:07:52;4.35;;;1.75;;
44985;SDS011;30721;49.380;7.736;2022-10-31T01:10:17;6.95;;;1.98;;
44985;SDS011;30721;49.380;7.736;2022-10-31T01:12:47;4.13;;;2.25;;
44985;SDS011;30721;49.380;7.736;2022-10-31T01:15:14;5.05;;;2.05;;
44985;SDS011;30721;49.380;7.736;2022-10-31T01:17:46;3.20;;;1.80;;
44985;SDS011;30721;49.380;7.736;2022-10-31T01:20:13;7.18;;;2.53;;
44985;SDS011;30721;49.380;7.736;2022-10-31T01:22:40;4.95;;;2.45;;
44985;SDS011;30721;49.380;7.736;2022-10-31T01:25:06;4.88;;;2.20;;
44985;SDS011;30721;49.380;7.736;2022-10-31T01:27:32;3.30;;;1.85;;
44985;SDS011;30721;49.380;7.736;2022-10-31T01:29:57;5.57;;;1.98;;
44985;SDS011;30721;49.380;7.736;2022-10-31T01:32:23;5.28;;;1.98;;
44985;SDS011;30721;49.380;7.736;2022-10-31T01:34:48;4.63;;;1.80;;
44985;SDS011;30721;49.380;7.736;2022-10-31T01:37:14;8.32;;;2.75;;
44985;SDS011;30721;49.380;7.736;2022-10-31T01:39:39;3.45;;;1.80;;
44985;SDS011;30721;49.380;7.736;2022-10-31T01:42:04;4.85;;;1.77;;
44985;SDS011;30721;49.380;7.736;2022-10-31T01:49:24;5.07;;;1.70;;
44985;SDS011;30721;49.380;7.736;2022-10-31T01:51:56;5.03;;;2.25;;
44985;SDS011;30721;49.380;7.736;2022-10-31T01:54:24;2.55;;;1.80;;
44985;SDS011;30721;49.380;7.736;2022-10-31T01:57:05;4.72;;;1.90;;
44985;SDS011;30721;49.380;7.736;2022-10-31T01:59:34;5.38;;;2.50;;
44985;SDS011;30721;49.380;7.736;2022-10-31T02:02:03;2.92;;;1.70;;
44985;SDS011;30721;49.380;7.736;2022-10-31T02:04:28;3.47;;;2.28;;
44985;SDS011;30721;49.380;7.736;2022-10-31T02:07:05;3.17;;;1.90;;
44985;SDS011;30721;49.380;7.736;2022-10-31T02:09:32;5.72;;;2.55;;
44985;SDS011;30721;49.380;7.736;2022-10-31T02:11:58;5.43;;;2.22;;
44985;SDS011;30721;49.380;7.736;2022-10-31T02:14:25;4.75;;;2.83;;
44985;SDS011;30721;49.380;7.736;2022-10-31T02:16:53;5.22;;;2.53;;
44985;SDS011;30721;49.380;7.736;2022-10-31T02:21:56;3.05;;;2.35;;
44985;SDS011;30721;49.380;7.736;2022-10-31T02:30:12;5.05;;;2.15;;
44985;SDS011;30721;49.380;7.736;2022-10-31T02:35:27;3.55;;;2.15;;
44985;SDS011;30721;49.380;7.736;2022-10-31T02:40:56;3.58;;;1.98;;
44985;SDS011;30721;49.380;7.736;2022-10-31T02:43:28;3.08;;;2.30;;
44985;SDS011;30721;49.380;7.736;2022-10-31T02:45:58;4.78;;;2.53;;
44985;SDS011;30721;49.380;7.736;2022-10-31T02:48:28;3.70;;;2.28;;
44985;SDS011;30721;49.380;7.736;2022-10-31T02:50:56;5.43;;;2.30;;
44985;SDS011;30721;49.380;7.736;2022-10-31T02:53:23;5.07;;;2.25;;
44985;SDS011;30721;49.380;7.736;2022-10-31T02:55:50;4.32;;;2.20;;
44985;SDS011;30721;49.380;7.736;2022-10-31T02:58:21;4.35;;;1.98;;
44985;SDS011;30721;49.380;7.736;2022-10-31T03:03:45;4.75;;;2.22;;
44985;SDS011;30721;49.380;7.736;2022-10-31T03:08:49;2.72;;;1.88;;
44985;SDS011;30721;49.380;7.736;2022-10-31T03:11:16;4.50;;;2.25;;
44985;SDS011;30721;49.380;7.736;2022-10-31T03:18:56;3.13;;;2.15;;
44985;SDS011;30721;49.380;7.736;2022-10-31T03:24:11;4.88;;;2.45;;
44985;SDS011;30721;49.380;7.736;2022-10-31T03:26:39;5.43;;;2.63;;
44985;SDS011;30721;49.380;7.736;2022-10-31T03:29:07;4.35;;;1.92;;
44985;SDS011;30721;49.380;7.736;2022-10-31T03:31:42;3.83;;;2.08;;
44985;SDS011;30721;49.380;7.736;2022-10-31T03:34:10;5.63;;;2.80;;
44985;SDS011;30721;49.380;7.736;2022-10-31T03:36:37;3.67;;;2.25;;
44985;SDS011;30721;49.380;7.736;2022-10-31T03:39:04;5.25;;;2.65;;
44985;SDS011;30721;49.380;7.736;2022-10-31T03:41:32;4.55;;;2.38;;
44985;SDS011;30721;49.380;7.736;2022-10-31T03:44:05;6.03;;;2.42;;
44985;SDS011;30721;49.380;7.736;2022-10-31T03:46:33;4.47;;;2.20;;
44985;SDS011;30721;49.380;7.736;2022-10-31T03:48:59;3.63;;;1.98;;
44985;SDS011;30721;49.380;7.736;2022-10-31T03:51:26;4.00;;;2.38;;
44985;SDS011;30721;49.380;7.736;2022-10-31T03:54:11;5.85;;;2.03;;
44985;SDS011;30721;49.380;7.736;2022-10-31T03:59:38;6.38;;;2.58;;
44985;SDS011;30721;49.380;7.736;2022-10-31T04:02:07;5.97;;;2.30;;
44985;SDS011;30721;49.380;7.736;2022-10-31T04:04:36;6.05;;;2.20;;
44985;SDS011;30721;49.380;7.736;2022-10-31T04:07:01;6.38;;;2.72;;
44985;SDS011;30721;49.380;7.736;2022-10-31T04:09:28;4.70;;;2.22;;
44985;SDS011;30721;49.380;7.736;2022-10-31T04:11:56;3.50;;;1.90;;
44985;SDS011;30721;49.380;7.736;2022-10-31T04:14:23;3.40;;;1.75;;
44985;SDS011;30721;49.380;7.736;2022-10-31T04:16:50;8.32;;;2.47;;
44985;SDS011;30721;49.380;7.736;2022-10-31T04:19:16;7.03;;;2.63;;
44985;SDS011;30721;49.380;7.736;2022-10-31T04:21:41;3.60;;;2.25;;
44985;SDS011;30721;49.380;7.736;2022-10-31T04:24:09;5.43;;;2.58;;
44985;SDS011;30721;49.380;7.736;2022-10-31T04:26:35;5.95;;;2.72;;
44985;SDS011;30721;49.380;7.736;2022-10-31T04:29:01;5.20;;;2.38;;
44985;SDS011;30721;49.380;7.736;2022-10-31T04:31:26;4.35;;;2.45;;
44985;SDS011;30721;49.380;7.736;2022-10-31T04:33:52;8.55;;;2.47;;
44985;SDS011;30721;49.380;7.736;2022-10-31T04:36:17;4.78;;;2.40;;
44985;SDS011;30721;49.380;7.736;2022-10-31T04:38:42;4.53;;;2.45;;
44985;SDS011;30721;49.380;7.736;2022-10-31T04:41:08;6.38;;;2.70;;
44985;SDS011;30721;49.380;7.736;2022-10-31T04:43:33;5.97;;;2.30;;
44985;SDS011;30721;49.380;7.736;2022-10-31T04:45:58;4.75;;;2.08;;
44985;SDS011;30721;49.380;7.736;2022-10-31T04:48:24;4.70;;;2.47;;
44985;SDS011;30721;49.380;7.736;2022-10-31T04:50:50;7.50;;;2.58;;
44985;SDS011;30721;49.380;7.736;2022-10-31T04:53:15;5.00;;;2.22;;
44985;SDS011;30721;49.380;7.736;2022-10-31T04:55:40;5.50;;;2.78;;
44985;SDS011;30721;49.380;7.736;2022-10-31T04:58:06;3.53;;;1.95;;
44985;SDS011;30721;49.380;7.736;2022-10-31T05:00:31;6.03;;;2.17;;
44985;SDS011;30721;49.380;7.736;2022-10-31T05:02:57;6.32;;;2.75;;
44985;SDS011;30721;49.380;7.736;2022-10-31T05:05:28;5.03;;;2.75;;
44985;SDS011;30721;49.380;7.736;2022-10-31T05:07:54;5.53;;;2.63;;
44985;SDS011;30721;49.380;7.736;2022-10-31T05:10:21;4.68;;;2.58;;
44985;SDS011;30721;49.380;7.736;2022-10-31T05:12:51;6.00;;;2.58;;
44985;SDS011;30721;49.380;7.736;2022-10-31T05:15:21;5.45;;;2.75;;
44985;SDS011;30721;49.380;7.736;2022-10-31T05:17:48;6.05;;;2.53;;
44985;SDS011;30721;49.380;7.736;2022-10-31T05:20:14;4.50;;;2.97;;
44985;SDS011;30721;49.380;7.736;2022-10-31T05:22:44;4.68;;;1.90;;
44985;SDS011;30721;49.380;7.736;2022-10-31T05:25:11;7.07;;;2.47;;
44985;SDS011;30721;49.380;7.736;2022-10-31T05:27:40;3.88;;;2.10;;
44985;SDS011;30721;49.380;7.736;2022-10-31T05:30:06;5.20;;;3.00;;
44985;SDS011;30721;49.380;7.736;2022-10-31T05:32:42;4.30;;;2.90;;
44985;SDS011;30721;49.380;7.736;2022-10-31T05:35:11;6.65;;;2.90;;
44985;SDS011;30721;49.380;7.736;2022-10-31T05:37:40;4.38;;;2.60;;
44985;SDS011;30721;49.380;7.736;2022-10-31T05:40:06;4.20;;;2.40;;
44985;SDS011;30721;49.380;7.736;2022-10-31T05:42:33;5.88;;;2.42;;
44985;SDS011;30721;49.380;7.736;2022-10-31T05:44:59;4.82;;;2.45;;
44985;SDS011;30721;49.380;7.736;2022-10-31T05:47:24;6.82;;;2.38;;
44985;SDS011;30721;49.380;7.736;2022-10-31T05:49:49;4.75;;;2.25;;
44985;SDS011;30721;49.380;7.736;2022-10-31T05:52:15;6.97;;;3.58;;
44985;SDS011;30721;49.380;7.736;2022-10-31T05:54:41;5.22;;;4.07;;
44985;SDS011;30721;49.380;7.736;2022-10-31T05:57:06;7.65;;;3.45;;
44985;SDS011;30721;49.380;7.736;2022-10-31T05:59:31;6.07;;;3.58;;
44985;SDS011;30721;49.380;7.736;2022-10-31T06:01:57;6.25;;;3.10;;
44985;SDS011;30721;49.380;7.736;2022-10-31T06:04:22;6.32;;;2.90;;
44985;SDS011;30721;49.380;7.736;2022-10-31T06:06:47;5.95;;;3.05;;
44985;SDS011;30721;49.380;7.736;2022-10-31T06:09:12;6.85;;;3.30;;
44985;SDS011;30721;49.380;7.736;2022-10-31T06:11:38;6.75;;;2.88;;
44985;SDS011;30721;49.380;7.736;2022-10-31T06:14:04;4.40;;;2.75;;
44985;SDS011;30721;49.380;7.736;2022-10-31T06:16:29;6.28;;;3.10;;
44985;SDS011;30721;49.380;7.736;2022-10-31T06:18:55;4.78;;;2.45;;
44985;SDS011;30721;49.380;7.736;2022-10-31T06:21:20;7.45;;;2.63;;
44985;SDS011;30721;49.380;7.736;2022-10-31T06:23:45;6.10;;;2.47;;
44985;SDS011;30721;49.380;7.736;2022-10-31T06:26:11;5.97;;;2.88;;
44985;SDS011;30721;49.380;7.736;2022-10-31T06:28:36;7.05;;;2.95;;
44985;SDS011;30721;49.380;7.736;2022-10-31T06:31:01;5.10;;;2.20;;
44985;SDS011;30721;49.380;7.736;2022-10-31T06:33:26;4.72;;;2.65;;
44985;SDS011;30721;49.380;7.736;2022-10-31T06:35:52;6.68;;;2.25;;
44985;SDS011;30721;49.380;7.736;2022-10-31T06:38:17;5.50;;;3.25;;
44985;SDS011;30721;49.380;7.736;2022-10-31T06:40:42;5.95;;;2.20;;
44985;SDS011;30721;49.380;7.736;2022-10-31T06:43:08;6.63;;;2.33;;
44985;SDS011;30721;49.380;7.736;2022-10-31T06:45:33;4.60;;;2.28;;
44985;SDS011;30721;49.380;7.736;2022-10-31T06:47:58;5.20;;;2.85;;
44985;SDS011;30721;49.380;7.736;2022-10-31T06:50:24;9.88;;;3.72;;
44985;SDS011;30721;49.380;7.736;2022-10-31T06:52:53;7.13;;;3.20;;
44985;SDS011;30721;49.380;7.736;2022-10-31T06:55:19;5.57;;;2.42;;
44985;SDS011;30721;49.380;7.736;2022-10-31T06:57:57;8.52;;;3.08;;
44985;SDS011;30721;49.380;7.736;2022-10-31T07:00:24;7.10;;;2.72;;
44985;SDS011;30721;49.380;7.736;2022-10-31T07:03:00;5.28;;;3.08;;
44985;SDS011;30721;49.380;7.736;2022-10-31T07:05:27;4.70;;;2.35;;
44985;SDS011;30721;49.380;7.736;2022-10-31T07:07:55;6.68;;;2.50;;
44985;SDS011;30721;49.380;7.736;2022-10-31T07:10:23;5.97;;;2.65;;
44985;SDS011;30721;49.380;7.736;2022-10-31T07:12:53;6.35;;;4.10;;
44985;SDS011;30721;49.380;7.736;2022-10-31T07:15:23;6.50;;;3.30;;
44985;SDS011;30721;49.380;7.736;2022-10-31T07:17:49;7.53;;;2.97;;
44985;SDS011;30721;49.380;7.736;2022-10-31T07:20:14;6.38;;;2.45;;
44985;SDS011;30721;49.380;7.736;2022-10-31T07:22:40;7.50;;;2.17;;
44985;SDS011;30721;49.380;7.736;2022-10-31T07:25:05;6.20;;;3.13;;
44985;SDS011;30721;49.380;7.736;2022-10-31T07:27:49;6.80;;;3.33;;
44985;SDS011;30721;49.380;7.736;2022-10-31T07:30:16;9.50;;;3.58;;
44985;SDS011;30721;49.380;7.736;2022-10-31T07:32:48;11.00;;;4.00;;
44985;SDS011;30721;49.380;7.736;2022-10-31T07:35:15;8.20;;;4.25;;
44985;SDS011;30721;49.380;7.736;2022-10-31T07:37:42;7.88;;;3.55;;
44985;SDS011;30721;49.380;7.736;2022-10-31T07:40:07;6.15;;;3.47;;
44985;SDS011;30721;49.380;7.736;2022-10-31T07:42:34;4.88;;;3.17;;
44985;SDS011;30721;49.380;7.736;2022-10-31T07:45:00;8.45;;;3.67;;
44985;SDS011;30721;49.380;7.736;2022-10-31T07:47:26;7.45;;;3.63;;
44985;SDS011;30721;49.380;7.736;2022-10-31T07:49:51;10.75;;;4.20;;
44985;SDS011;30721;49.380;7.736;2022-10-31T07:52:16;9.98;;;4.05;;
44985;SDS011;30721;49.380;7.736;2022-10-31T07:54:42;10.50;;;4.35;;
44985;SDS011;30721;49.380;7.736;2022-10-31T07:57:07;8.80;;;4.38;;
44985;SDS011;30721;49.380;7.736;2022-10-31T07:59:33;9.05;;;4.30;;
44985;SDS011;30721;49.380;7.736;2022-10-31T08:01:58;8.15;;;4.63;;
44985;SDS011;30721;49.380;7.736;2022-10-31T08:04:23;6.85;;;4.15;;
44985;SDS011;30721;49.380;7.736;2022-10-31T08:06:48;8.95;;;4.88;;
44985;SDS011;30721;49.380;7.736;2022-10-31T08:09:14;5.95;;;4.10;;
44985;SDS011;30721;49.380;7.736;2022-10-31T08:11:39;8.57;;;4.95;;
44985;SDS011;30721;49.380;7.736;2022-10-31T08:14:05;8.38;;;4.82;;
44985;SDS011;30721;49.380;7.736;2022-10-31T08:16:30;7.28;;;4.60;;
44985;SDS011;30721;49.380;7.736;2022-10-31T08:18:55;7.93;;;4.15;;
44985;SDS011;30721;49.380;7.736;2022-10-31T08:21:21;8.25;;;4.70;;
44985;SDS011;30721;49.380;7.736;2022-10-31T08:23:47;8.75;;;4.47;;
44985;SDS011;30721;49.380;7.736;2022-10-31T08:26:12;7.97;;;5.00;;
44985;SDS011;30721;49.380;7.736;2022-10-31T08:28:37;10.77;;;4.78;;
44985;SDS011;30721;49.380;7.736;2022-10-31T08:31:03;8.55;;;5.80;;
44985;SDS011;30721;49.380;7.736;2022-10-31T08:33:28;8.88;;;6.53;;
44985;SDS011;30721;49.380;7.736;2022-10-31T08:35:53;11.10;;;7.45;;
44985;SDS011;30721;49.380;7.736;2022-10-31T08:38:19;10.50;;;6.88;;
44985;SDS011;30721;49.380;7.736;2022-10-31T08:40:47;9.10;;;5.80;;
44985;SDS011;30721;49.380;7.736;2022-10-31T08:43:13;8.23;;;4.30;;
44985;SDS011;30721;49.380;7.736;2022-10-31T08:45:40;7.72;;;3.80;;
44985;SDS011;30721;49.380;7.736;2022-10-31T08:48:08;6.55;;;3.40;;
44985;SDS011;30721;49.380;7.736;2022-10-31T08:50:35;5.78;;;3.10;;
44985;SDS011;30721;49.380;7.736;2022-10-31T08:53:02;4.63;;;2.75;;
44985;SDS011;30721;49.380;7.736;2022-10-31T08:55:29;5.72;;;2.65;;
44985;SDS011;30721;49.380;7.736;2022-10-31T08:57:55;4.97;;;2.40;;
44985;SDS011;30721;49.380;7.736;2022-10-31T09:00:22;4.97;;;2.58;;
44985;SDS011;30721;49.380;7.736;2022-10-31T09:02:47;6.53;;;2.80;;
44985;SDS011;30721;49.380;7.736;2022-10-31T09:05:12;4.10;;;2.28;;
44985;SDS011;30721;49.380;7.736;2022-10-31T09:07:38;5.40;;;2.30;;
44985;SDS011;30721;49.380;7.736;2022-10-31T09:10:03;4.05;;;2.40;;
44985;SDS011;30721;49.380;7.736;2022-10-31T09:12:28;5.70;;;3.00;;
44985;SDS011;30721;49.380;7.736;2022-10-31T09:14:54;4.65;;;2.92;;
44985;SDS011;30721;49.380;7.736;2022-10-31T09:17:19;4.95;;;2.38;;
44985;SDS011;30721;49.380;7.736;2022-10-31T09:19:44;6.70;;;3.00;;
44985;SDS011;30721;49.380;7.736;2022-10-31T09:22:10;2.97;;;2.03;;
44985;SDS011;30721;49.380;7.736;2022-10-31T09:24:35;3.10;;;1.85;;
44985;SDS011;30721;49.380;7.736;2022-10-31T09:27:00;5.13;;;2.40;;
44985;SDS011;30721;49.380;7.736;2022-10-31T09:29:26;3.47;;;2.33;;
44985;SDS011;30721;49.380;7.736;2022-10-31T09:31:51;6.10;;;2.60;;
44985;SDS011;30721;49.380;7.736;2022-10-31T09:34:16;7.88;;;2.50;;
44985;SDS011;30721;49.380;7.736;2022-10-31T09:36:42;4.05;;;2.50;;
44985;SDS011;30721;49.380;7.736;2022-10-31T09:39:08;6.32;;;2.63;;
44985;SDS011;30721;49.380;7.736;2022-10-31T09:47:37;5.18;;;2.42;;
44985;SDS011;30721;49.380;7.736;2022-10-31T09:53:10;4.72;;;2.53;;
44985;SDS011;30721;49.380;7.736;2022-10-31T09:55:52;8.63;;;2.88;;
44985;SDS011;30721;49.380;7.736;2022-10-31T09:58:23;7.18;;;3.00;;
44985;SDS011;30721;49.380;7.736;2022-10-31T10:00:50;4.93;;;2.80;;
44985;SDS011;30721;49.380;7.736;2022-10-31T10:08:30;6.82;;;3.05;;
44985;SDS011;30721;49.380;7.736;2022-10-31T10:16:42;7.80;;;3.08;;
44985;SDS011;30721;49.380;7.736;2022-10-31T10:19:45;7.80;;;2.38;;
44985;SDS011;30721;49.380;7.736;2022-10-31T10:30:26;5.55;;;2.85;;
44985;SDS011;30721;49.380;7.736;2022-10-31T10:32:59;6.45;;;3.28;;
44985;SDS011;30721;49.380;7.736;2022-10-31T10:35:32;5.03;;;2.15;;
44985;SDS011;30721;49.380;7.736;2022-10-31T10:38:04;3.63;;;2.03;;
44985;SDS011;30721;49.380;7.736;2022-10-31T10:40:34;5.20;;;2.70;;
44985;SDS011;30721;49.380;7.736;2022-10-31T10:45:44;6.32;;;3.15;;
44985;SDS011;30721;49.380;7.736;2022-10-31T10:48:43;5.22;;;2.70;;
44985;SDS011;30721;49.380;7.736;2022-10-31T10:51:31;6.53;;;3.33;;
44985;SDS011;30721;49.380;7.736;2022-10-31T10:54:11;4.63;;;2.63;;
44985;SDS011;30721;49.380;7.736;2022-10-31T10:56:50;6.60;;;2.72;;
44985;SDS011;30721;49.380;7.736;2022-10-31T10:59:25;5.25;;;2.70;;
44985;SDS011;30721;49.380;7.736;2022-10-31T11:01:51;6.10;;;3.42;;
44985;SDS011;30721;49.380;7.736;2022-10-31T11:04:28;5.13;;;1.92;;
44985;SDS011;30721;49.380;7.736;2022-10-31T11:09:28;4.43;;;2.22;;
44985;SDS011;30721;49.380;7.736;2022-10-31T11:11:54;4.68;;;2.58;;
44985;SDS011;30721;49.380;7.736;2022-10-31T11:14:20;3.28;;;2.53;;
44985;SDS011;30721;49.380;7.736;2022-10-31T11:16:49;5.97;;;3.15;;
44985;SDS011;30721;49.380;7.736;2022-10-31T11:19:19;5.35;;;3.17;;
44985;SDS011;30721;49.380;7.736;2022-10-31T11:21:45;3.13;;;2.35;;
44985;SDS011;30721;49.380;7.736;2022-10-31T11:24:18;5.55;;;2.97;;
44985;SDS011;30721;49.380;7.736;2022-10-31T11:26:46;4.22;;;1.95;;
44985;SDS011;30721;49.380;7.736;2022-10-31T11:29:14;5.32;;;2.38;;
44985;SDS011;30721;49.380;7.736;2022-10-31T11:31:51;5.35;;;2.35;;
44985;SDS011;30721;49.380;7.736;2022-10-31T11:36:54;7.07;;;2.35;;
44985;SDS011;30721;49.380;7.736;2022-10-31T11:39:33;7.47;;;3.45;;
44985;SDS011;30721;49.380;7.736;2022-10-31T11:42:06;2.78;;;2.15;;
44985;SDS011;30721;49.380;7.736;2022-10-31T11:44:31;4.63;;;2.28;;
44985;SDS011;30721;49.380;7.736;2022-10-31T11:47:01;4.47;;;2.08;;
44985;SDS011;30721;49.380;7.736;2022-10-31T11:49:35;5.13;;;2.00;;
44985;SDS011;30721;49.380;7.736;2022-10-31T11:52:02;5.03;;;2.28;;
44985;SDS011;30721;49.380;7.736;2022-10-31T11:54:31;6.72;;;3.03;;
44985;SDS011;30721;49.380;7.736;2022-10-31T11:57:04;3.58;;;2.20;;
44985;SDS011;30721;49.380;7.736;2022-10-31T11:59:30;4.07;;;2.50;;
44985;SDS011;30721;49.380;7.736;2022-10-31T12:01:58;5.00;;;2.25;;
44985;SDS011;30721;49.380;7.736;2022-10-31T12:04:37;5.97;;;2.60;;
44985;SDS011;30721;49.380;7.736;2022-10-31T12:07:05;5.82;;;2.97;;
44985;SDS011;30721;49.380;7.736;2022-10-31T12:09:33;5.75;;;2.75;;
44985;SDS011;30721;49.380;7.736;2022-10-31T12:20:33;5.93;;;2.70;;
44985;SDS011;30721;49.380;7.736;2022-10-31T12:23:24;8.15;;;3.33;;
44985;SDS011;30721;49.380;7.736;2022-10-31T12:26:18;6.07;;;3.15;;
44985;SDS011;30721;49.380;7.736;2022-10-31T12:32:15;4.38;;;3.00;;
44985;SDS011;30721;49.380;7.736;2022-10-31T12:48:06;4.65;;;2.78;;
44985;SDS011;30721;49.380;7.736;2022-10-31T12:59:38;5.25;;;2.72;;
44985;SDS011;30721;49.380;7.736;2022-10-31T13:02:24;5.38;;;2.55;;
44985;SDS011;30721;49.380;7.736;2022-10-31T13:04:56;8.35;;;3.10;;
44985;SDS011;30721;49.380;7.736;2022-10-31T13:10:36;5.67;;;3.73;;
44985;SDS011;30721;49.380;7.736;2022-10-31T13:13:06;4.45;;;2.80;;
44985;SDS011;30721;49.380;7.736;2022-10-31T13:15:40;5.95;;;3.03;;
44985;SDS011;30721;49.380;7.736;2022-10-31T13:18:19;4.60;;;3.03;;
44985;SDS011;30721;49.380;7.736;2022-10-31T13:20:50;5.82;;;2.63;;
44985;SDS011;30721;49.380;7.736;2022-10-31T13:25:49;5.57;;;2.50;;
44985;SDS011;30721;49.380;7.736;2022-10-31T13:30:45;3.17;;;2.10;;
44985;SDS011;30721;49.380;7.736;2022-10-31T13:33:19;5.97;;;2.20;;
44985;SDS011;30721;49.380;7.736;2022-10-31T13:41:00;5.47;;;2.60;;
44985;SDS011;30721;49.380;7.736;2022-10-31T13:46:34;3.38;;;2.40;;
44985;SDS011;30721;49.380;7.736;2022-10-31T13:49:01;4.03;;;3.08;;
44985;SDS011;30721;49.380;7.736;2022-10-31T13:51:27;4.20;;;2.10;;
44985;SDS011;30721;49.380;7.736;2022-10-31T13:56:21;3.88;;;2.45;;
44985;SDS011;30721;49.380;7.736;2022-10-31T13:58:58;4.28;;;2.58;;
44985;SDS011;30721;49.380;7.736;2022-10-31T14:01:25;4.68;;;2.42;;
44985;SDS011;30721;49.380;7.736;2022-10-31T14:03:58;6.00;;;3.15;;
44985;SDS011;30721;49.380;7.736;2022-10-31T14:06:36;4.43;;;2.55;;
44985;SDS011;30721;49.380;7.736;2022-10-31T14:09:03;3.88;;;2.47;;
44985;SDS011;30721;49.380;7.736;2022-10-31T14:11:29;5.75;;;3.05;;
44985;SDS011;30721;49.380;7.736;2022-10-31T14:13:55;5.78;;;3.58;;
44985;SDS011;30721;49.380;7.736;2022-10-31T14:16:28;2.72;;;2.42;;
44985;SDS011;30721;49.380;7.736;2022-10-31T14:23:55;4.72;;;2.65;;
44985;SDS011;30721;49.380;7.736;2022-10-31T14:29:41;4.28;;;2.65;;
44985;SDS011;30721;49.380;7.736;2022-10-31T14:31:43;6.97;;;3.58;;
44985;SDS011;30721;49.380;7.736;2022-10-31T14:40:11;6.57;;;3.65;;
44985;SDS011;30721;49.380;7.736;2022-10-31T14:43:27;5.10;;;3.05;;
44985;SDS011;30721;49.380;7.736;2022-10-31T14:50:57;8.43;;;3.13;;
44985;SDS011;30721;49.380;7.736;2022-10-31T14:55:53;5.75;;;3.72;;
44985;SDS011;30721;49.380;7.736;2022-10-31T14:58:21;4.53;;;2.47;;
44985;SDS011;30721;49.380;7.736;2022-10-31T15:00:50;6.55;;;2.50;;
44985;SDS011;30721;49.380;7.736;2022-10-31T15:03:22;5.50;;;3.17;;
44985;SDS011;30721;49.380;7.736;2022-10-31T15:05:51;4.85;;;2.55;;
44985;SDS011;30721;49.380;7.736;2022-10-31T15:08:53;4.70;;;3.00;;
44985;SDS011;30721;49.380;7.736;2022-10-31T15:11:13;8.38;;;3.30;;
44985;SDS011;30721;49.380;7.736;2022-10-31T15:13:50;4.10;;;2.42;;
44985;SDS011;30721;49.380;7.736;2022-10-31T15:16:20;4.65;;;3.05;;
44985;SDS011;30721;49.380;7.736;2022-10-31T15:18:48;5.88;;;3.00;;
44985;SDS011;30721;49.380;7.736;2022-10-31T15:21:16;5.78;;;2.83;;
44985;SDS011;30721;49.380;7.736;2022-10-31T15:23:42;4.75;;;2.42;;
44985;SDS011;30721;49.380;7.736;2022-10-31T15:26:14;6.95;;;2.80;;
44985;SDS011;30721;49.380;7.736;2022-10-31T15:28:42;5.93;;;2.70;;
44985;SDS011;30721;49.380;7.736;2022-10-31T15:31:12;5.88;;;2.50;;
44985;SDS011;30721;49.380;7.736;2022-10-31T15:33:41;5.57;;;2.65;;
44985;SDS011;30721;49.380;7.736;2022-10-31T15:36:17;7.47;;;2.45;;
44985;SDS011;30721;49.380;7.736;2022-10-31T15:38:44;4.05;;;2.38;;
44985;SDS011;30721;49.380;7.736;2022-10-31T15:43:56;5.38;;;2.83;;
44985;SDS011;30721;49.380;7.736;2022-10-31T15:46:26;7.05;;;3.20;;
44985;SDS011;30721;49.380;7.736;2022-10-31T15:48:52;5.25;;;2.50;;
44985;SDS011;30721;49.380;7.736;2022-10-31T15:51:24;6.15;;;2.85;;
44985;SDS011;30721;49.380;7.736;2022-10-31T15:53:51;8.68;;;3.95;;
44985;SDS011;30721;49.380;7.736;2022-10-31T15:56:21;5.05;;;2.92;;
44985;SDS011;30721;49.380;7.736;2022-10-31T15:58:52;6.82;;;2.70;;
44985;SDS011;30721;49.380;7.736;2022-10-31T16:06:44;9.00;;;3.40;;
44985;SDS011;30721;49.380;7.736;2022-10-31T16:09:22;6.18;;;2.47;;
44985;SDS011;30721;49.380;7.736;2022-10-31T16:11:48;5.43;;;2.75;;
44985;SDS011;30721;49.380;7.736;2022-10-31T16:16:46;4.85;;;2.88;;
44985;SDS011;30721;49.380;7.736;2022-10-31T16:19:21;5.03;;;2.53;;
44985;SDS011;30721;49.380;7.736;2022-10-31T16:22:08;6.82;;;2.95;;
44985;SDS011;30721;49.380;7.736;2022-10-31T16:24:38;5.18;;;2.72;;
44985;SDS011;30721;49.380;7.736;2022-10-31T16:27:16;5.45;;;3.22;;
44985;SDS011;30721;49.380;7.736;2022-10-31T16:29:51;3.35;;;2.38;;
44985;SDS011;30721;49.380;7.736;2022-10-31T16:32:24;5.82;;;2.80;;
44985;SDS011;30721;49.380;7.736;2022-10-31T16:37:43;5.50;;;2.58;;
44985;SDS011;30721;49.380;7.736;2022-10-31T16:40:12;6.03;;;3.08;;
44985;SDS011;30721;49.380;7.736;2022-10-31T16:42:39;5.50;;;2.90;;
44985;SDS011;30721;49.380;7.736;2022-10-31T16:45:05;4.20;;;2.38;;
44985;SDS011;30721;49.380;7.736;2022-10-31T16:47:31;5.03;;;2.67;;
44985;SDS011;30721;49.380;7.736;2022-10-31T16:49:56;6.65;;;3.60;;
44985;SDS011;30721;49.380;7.736;2022-10-31T16:52:25;5.65;;;3.45;;
44985;SDS011;30721;49.380;7.736;2022-10-31T16:54:50;5.15;;;3.30;;
44985;SDS011;30721;49.380;7.736;2022-10-31T16:57:17;5.15;;;2.72;;
44985;SDS011;30721;49.380;7.736;2022-10-31T16:59:46;3.92;;;2.80;;
44985;SDS011;30721;49.380;7.736;2022-10-31T17:02:16;6.13;;;2.85;;
44985;SDS011;30721;49.380;7.736;2022-10-31T17:04:42;8.38;;;3.20;;
44985;SDS011;30721;49.380;7.736;2022-10-31T17:07:07;9.20;;;3.95;;
44985;SDS011;30721;49.380;7.736;2022-10-31T17:09:32;7.95;;;4.55;;
44985;SDS011;30721;49.380;7.736;2022-10-31T17:11:58;11.50;;;6.40;;
44985;SDS011;30721;49.380;7.736;2022-10-31T17:14:23;10.35;;;5.82;;
44985;SDS011;30721;49.380;7.736;2022-10-31T17:16:49;10.90;;;6.03;;
44985;SDS011;30721;49.380;7.736;2022-10-31T17:19:14;9.23;;;5.55;;
44985;SDS011;30721;49.380;7.736;2022-10-31T17:21:40;8.65;;;4.90;;
44985;SDS011;30721;49.380;7.736;2022-10-31T17:24:05;9.05;;;5.47;;
44985;SDS011;30721;49.380;7.736;2022-10-31T17:26:31;7.82;;;4.30;;
44985;SDS011;30721;49.380;7.736;2022-10-31T17:28:56;9.75;;;5.10;;
44985;SDS011;30721;49.380;7.736;2022-10-31T17:31:27;6.65;;;3.30;;
44985;SDS011;30721;49.380;7.736;2022-10-31T17:33:54;6.03;;;2.80;;
44985;SDS011;30721;49.380;7.736;2022-10-31T17:36:20;7.82;;;3.70;;